createdAt,value
2018-09-08T08:36:15.536Z,4.07
2018-09-08T08:42:25.336Z,4.53
2018-09-08T08:48:15.306Z,5.00
2018-09-08T08:50:57.291Z,4.13
2018-09-08T08:53:39.259Z,4.63
2018-09-08T08:56:09.903Z,3.80
2018-09-08T08:58:39.433Z,3.23
2018-09-08T09:01:11.828Z,3.60
2018-09-08T09:03:53.105Z,3.50
2018-09-08T09:06:23.132Z,3.60
2018-09-08T09:09:03.739Z,3.57
2018-09-08T09:11:54.030Z,3.77
2018-09-08T10:42:18.878Z,1.90
2018-09-08T10:44:58.644Z,2.10
2018-09-08T10:47:35.415Z,1.83
2018-09-08T10:50:15.641Z,2.37
2018-09-08T10:52:51.116Z,2.30
2018-09-08T10:58:40.293Z,1.97
2018-09-08T11:01:43.880Z,2.10
2018-09-08T11:07:36.247Z,1.80
2018-09-08T11:10:14.585Z,2.30
2018-09-08T11:12:56.972Z,1.90
2018-09-08T11:15:52.229Z,1.87
2018-09-08T11:18:25.327Z,1.40
2018-09-08T11:20:58.477Z,1.70
2018-09-08T11:23:48.335Z,2.20
2018-09-08T11:26:17.703Z,2.10
2018-09-08T11:29:01.044Z,2.20
2018-09-08T11:31:42.399Z,2.17
2018-09-08T11:34:13.907Z,1.97
2018-09-08T11:36:57.879Z,1.57
2018-09-08T11:39:35.477Z,2.17
2018-09-08T11:42:08.635Z,1.60
2018-09-08T11:44:46.128Z,1.50
2018-09-08T11:50:30.741Z,1.80
2018-09-08T11:53:02.038Z,1.73
2018-09-08T12:41:35.501Z,1.60
2018-09-08T12:44:14.284Z,1.30
2018-09-08T13:06:05.569Z,1.00
2018-09-08T13:08:36.374Z,1.50
2018-09-08T13:11:10.243Z,1.43
2018-09-08T13:17:13.131Z,1.30
2018-09-08T13:19:42.506Z,1.30
2018-09-08T13:22:23.902Z,1.33
2018-09-08T13:24:54.109Z,1.10
2018-09-08T13:27:27.241Z,1.50
2018-09-08T13:30:12.095Z,1.47
2018-09-08T13:32:42.154Z,1.20
2018-09-08T13:35:13.622Z,1.70
2018-09-08T13:37:44.356Z,1.20
2018-09-08T13:40:16.812Z,1.27
2018-09-08T14:37:22.595Z,1.90
2018-09-08T14:39:54.102Z,1.77
2018-09-08T14:42:26.992Z,2.03
2018-09-08T14:45:00.988Z,1.93
2018-09-08T14:50:55.254Z,1.87
2018-09-08T14:53:27.555Z,1.97
2018-09-08T14:55:58.562Z,1.90
2018-09-08T15:12:25.887Z,1.83
2018-09-08T15:14:56.151Z,1.90
2018-09-08T15:17:29.099Z,2.00
2018-09-08T15:20:21.019Z,2.10
2018-09-08T15:22:51.516Z,2.30
2018-09-08T15:25:50.712Z,2.10
2018-09-08T15:28:35.681Z,1.70
2018-09-08T15:31:08.859Z,1.90
2018-09-08T15:33:38.895Z,2.20
2018-09-08T15:36:16.488Z,1.40
2018-09-08T15:38:54.270Z,1.80
2018-09-08T15:41:26.547Z,2.63
2018-09-08T15:44:16.889Z,2.23
2018-09-08T15:46:52.414Z,2.03
2018-09-08T15:49:21.876Z,1.37
2018-09-08T15:51:56.609Z,1.97
2018-09-08T15:54:26.731Z,1.60
2018-09-08T15:56:56.674Z,1.50
2018-09-08T15:59:26.364Z,1.67
2018-09-08T16:02:01.892Z,1.83
2018-09-08T16:04:35.461Z,1.50
2018-09-08T16:07:05.326Z,1.40
2018-09-08T16:09:35.727Z,1.70
2018-09-08T16:12:17.210Z,2.17
2018-09-08T16:14:54.120Z,1.93
2018-09-08T16:17:26.338Z,1.40
2018-09-08T16:19:57.488Z,2.03
2018-09-08T16:22:40.649Z,4.57
2018-09-08T16:25:11.959Z,1.50
2018-09-08T16:27:54.780Z,1.73
2018-09-08T16:30:36.284Z,2.00
2018-09-08T16:33:18.916Z,1.73
2018-09-08T16:49:29.977Z,2.13
2018-09-08T16:52:03.371Z,2.00
2018-09-08T16:54:37.572Z,2.30
2018-09-08T16:57:09.131Z,1.90
2018-09-08T16:59:44.853Z,2.13
2018-09-08T17:02:19.000Z,1.80
2018-09-08T17:05:00.235Z,1.70
2018-09-08T17:07:33.273Z,1.80
2018-09-08T17:10:24.498Z,1.77
2018-09-08T17:13:09.834Z,1.50
2018-09-08T17:16:00.351Z,1.77
2018-09-08T17:18:38.525Z,1.60
2018-09-08T17:21:18.887Z,2.03
2018-09-08T17:23:55.755Z,2.37
2018-09-08T20:15:25.516Z,3.13
2018-09-08T21:57:11.459Z,4.23
